createdAt,value
2018-01-15T00:02:11.373Z,79.60
2018-01-15T00:04:44.821Z,79.50
2018-01-15T00:07:18.194Z,79.30
2018-01-15T00:09:51.555Z,79.30
2018-01-15T00:12:25.214Z,79.20
2018-01-15T00:14:57.729Z,79.10
2018-01-15T00:17:31.047Z,79.00
2018-01-15T00:20:03.981Z,79.10
2018-01-15T00:22:37.743Z,79.10
2018-01-15T00:25:11.162Z,79.00
2018-01-15T00:27:43.682Z,79.20
2018-01-15T00:30:16.586Z,79.00
2018-01-15T00:32:49.984Z,79.20
2018-01-15T00:35:23.459Z,79.50
2018-01-15T00:37:55.958Z,79.30
2018-01-15T00:40:29.374Z,79.30
2018-01-15T00:43:01.953Z,79.20
2018-01-15T00:45:34.733Z,79.30
2018-01-15T00:48:07.978Z,79.50
2018-01-15T00:50:40.630Z,79.30
2018-01-15T00:53:13.910Z,79.30
2018-01-15T00:55:47.564Z,79.50
2018-01-15T00:58:20.748Z,79.60
2018-01-15T01:00:54.084Z,79.70
2018-01-15T01:03:27.308Z,79.80
2018-01-15T01:06:00.632Z,79.70
2018-01-15T01:08:33.176Z,79.80
2018-01-15T01:11:05.551Z,79.80
2018-01-15T01:13:38.084Z,79.70
2018-01-15T01:16:11.462Z,79.70
2018-01-15T01:18:44.262Z,79.80
2018-01-15T01:21:17.560Z,79.70
2018-01-15T01:23:50.350Z,79.60
2018-01-15T01:26:23.850Z,79.60
2018-01-15T01:28:57.833Z,79.70
2018-01-15T01:31:30.565Z,79.60
2018-01-15T01:34:03.852Z,79.80
2018-01-15T01:36:37.251Z,79.80
2018-01-15T01:39:10.092Z,79.70
2018-01-15T01:41:42.672Z,79.70
2018-01-15T01:44:15.257Z,79.80
2018-01-15T01:46:47.742Z,79.70
2018-01-15T01:49:20.288Z,80.00
2018-01-15T01:51:54.365Z,80.00
2018-01-15T01:54:27.334Z,79.80
2018-01-15T01:57:00.665Z,80.00
2018-01-15T01:59:34.017Z,79.70
2018-01-15T02:02:06.557Z,79.80
2018-01-15T02:04:39.130Z,80.00
2018-01-15T02:07:11.788Z,80.00
2018-01-15T02:09:45.188Z,80.20
2018-01-15T02:12:17.837Z,80.00
2018-01-15T02:14:51.133Z,80.30
2018-01-15T02:17:23.629Z,79.90
2018-01-15T02:19:57.057Z,80.00
2018-01-15T02:22:29.565Z,80.70
2018-01-15T02:25:02.214Z,80.10
2018-01-15T02:27:35.542Z,80.20
2018-01-15T02:30:08.046Z,80.00
2018-01-15T02:32:40.937Z,80.00
2018-01-15T02:35:13.529Z,79.90
2018-01-15T02:37:47.810Z,79.90
2018-01-15T02:40:20.920Z,80.00
2018-01-15T02:42:53.387Z,80.00
2018-01-15T02:45:26.174Z,80.10
2018-01-15T02:47:59.778Z,80.00
2018-01-15T02:50:32.694Z,80.10
2018-01-15T02:53:05.312Z,80.00
2018-01-15T02:55:39.326Z,79.80
2018-01-15T02:58:12.838Z,79.50
2018-01-15T03:00:45.525Z,79.60
2018-01-15T03:03:17.975Z,79.70
2018-01-15T03:05:50.656Z,80.20
2018-01-15T03:08:23.371Z,80.20
2018-01-15T03:10:56.845Z,80.10
2018-01-15T03:13:29.607Z,80.10
2018-01-15T03:16:02.080Z,80.00
2018-01-15T03:18:34.627Z,79.70
2018-01-15T03:21:07.240Z,79.50
2018-01-15T03:23:40.523Z,79.00
2018-01-15T03:26:13.525Z,79.50
2018-01-15T03:28:46.162Z,79.40
2018-01-15T03:31:19.030Z,79.40
2018-01-15T03:33:51.654Z,79.60
2018-01-15T03:36:24.516Z,79.50
2018-01-15T03:38:57.131Z,79.50
2018-01-15T03:41:30.175Z,79.70
2018-01-15T03:44:02.903Z,79.60
2018-01-15T03:46:36.521Z,79.70
2018-01-15T03:49:09.410Z,79.60
2018-01-15T03:51:42.075Z,79.60
2018-01-15T03:54:14.687Z,79.30
2018-01-15T03:56:48.308Z,79.20
2018-01-15T03:59:21.179Z,79.40
2018-01-15T04:01:54.813Z,79.10
2018-01-15T04:04:27.538Z,79.20
2018-01-15T04:07:01.154Z,79.00
2018-01-15T04:09:34.513Z,79.50
2018-01-15T04:12:07.703Z,79.20
2018-01-15T04:14:40.341Z,79.10
2018-01-15T04:17:12.878Z,79.30
2018-01-15T04:19:45.437Z,79.10
2018-01-15T04:22:18.321Z,80.20
2018-01-15T04:24:52.422Z,79.50
2018-01-15T04:27:25.103Z,79.20
2018-01-15T04:29:59.242Z,79.20
2018-01-15T04:32:32.221Z,79.20
2018-01-15T04:35:04.806Z,79.40
2018-01-15T04:37:37.469Z,79.70
2018-01-15T04:40:10.214Z,79.80
2018-01-15T04:42:42.714Z,79.70
2018-01-15T04:45:16.018Z,80.10
2018-01-15T04:47:48.798Z,80.10
2018-01-15T04:50:21.598Z,80.40
2018-01-15T04:52:54.870Z,80.10
2018-01-15T04:55:27.861Z,80.00
2018-01-15T04:58:01.076Z,80.30
2018-01-15T05:00:34.876Z,80.50
2018-01-15T05:03:07.772Z,80.40
2018-01-15T05:05:40.430Z,80.60
2018-01-15T05:08:13.334Z,80.60
2018-01-15T05:10:46.123Z,80.80
2018-01-15T05:13:18.713Z,81.00
2018-01-15T05:15:51.274Z,81.00
2018-01-15T05:18:23.911Z,81.30
2018-01-15T05:20:57.316Z,81.70
2018-01-15T05:23:29.776Z,82.10
2018-01-15T05:26:02.318Z,81.50
2018-01-15T05:28:34.909Z,81.30
2018-01-15T05:31:08.400Z,81.20
2018-01-15T05:33:41.030Z,81.20
2018-01-15T05:36:13.904Z,80.90
2018-01-15T05:38:47.285Z,80.80
2018-01-15T05:41:19.965Z,80.60
2018-01-15T05:43:53.398Z,80.90
2018-01-15T05:46:26.779Z,80.90
2018-01-15T05:48:59.814Z,80.90
2018-01-15T05:51:33.363Z,80.60
2018-01-15T05:54:06.405Z,80.70
2018-01-15T05:56:39.828Z,80.60
2018-01-15T05:59:12.514Z,80.60
2018-01-15T06:01:45.241Z,80.60
2018-01-15T06:04:18.079Z,80.60
2018-01-15T06:06:50.614Z,80.70
2018-01-15T06:09:23.902Z,80.90
2018-01-15T06:11:56.717Z,80.90
2018-01-15T06:14:29.571Z,80.40
2018-01-15T06:17:02.129Z,82.70
2018-01-15T06:19:34.742Z,82.30
2018-01-15T06:22:07.378Z,80.70
2018-01-15T06:24:40.082Z,80.30
2018-01-15T06:27:12.608Z,80.10
2018-01-15T06:29:46.263Z,80.20
2018-01-15T06:32:19.044Z,80.30
2018-01-15T06:34:59.298Z,79.60
2018-01-15T06:37:32.324Z,79.90
2018-01-15T06:40:04.809Z,79.80
2018-01-15T06:42:37.477Z,79.60
2018-01-15T06:45:11.671Z,79.90
2018-01-15T06:47:44.640Z,79.80
2018-01-15T06:50:17.414Z,79.60
2018-01-15T06:52:50.797Z,79.70
2018-01-15T06:55:23.554Z,79.80
2018-01-15T06:57:56.012Z,79.40
2018-01-15T07:00:29.169Z,79.50
2018-01-15T07:03:01.853Z,79.40
2018-01-15T07:05:34.917Z,79.70
2018-01-15T07:08:07.527Z,79.40
2018-01-15T07:10:40.291Z,79.30
2018-01-15T07:13:12.971Z,79.20
2018-01-15T07:15:45.771Z,79.40
2018-01-15T07:18:18.754Z,79.30
2018-01-15T07:20:51.625Z,79.40
2018-01-15T07:23:25.575Z,79.30
2018-01-15T07:25:58.653Z,79.60
2018-01-15T07:28:31.176Z,79.30
2018-01-15T07:31:03.930Z,79.20
2018-01-15T07:33:36.711Z,79.30
2018-01-15T07:36:09.303Z,79.20
2018-01-15T07:38:42.586Z,79.10
2018-01-15T07:41:15.474Z,79.10
2018-01-15T07:43:48.986Z,79.00
2018-01-15T07:46:22.712Z,79.10
2018-01-15T07:48:56.175Z,79.00
2018-01-15T07:51:29.558Z,78.50
2018-01-15T07:54:03.100Z,78.80
2018-01-15T07:56:35.783Z,78.90
2018-01-15T07:59:08.337Z,78.80
2018-01-15T08:01:41.656Z,79.00
2018-01-15T08:04:15.029Z,78.40
2018-01-15T08:06:48.720Z,78.20
2018-01-15T08:09:21.397Z,78.20
2018-01-15T08:11:54.892Z,78.10
2018-01-15T08:14:27.643Z,78.00
2018-01-15T08:17:00.618Z,78.30
2018-01-15T08:19:33.214Z,78.40
2018-01-15T08:22:06.177Z,77.90
2018-01-15T08:24:38.833Z,78.10
2018-01-15T08:27:11.369Z,78.00
2018-01-15T08:29:44.193Z,78.30
2018-01-15T08:32:17.806Z,78.00
2018-01-15T08:34:50.743Z,78.00
2018-01-15T08:37:23.414Z,78.50
2018-01-15T08:39:56.282Z,78.50
2018-01-15T08:42:29.901Z,78.20
2018-01-15T08:45:02.823Z,78.10
2018-01-15T08:47:35.322Z,78.10
2018-01-15T08:50:07.885Z,78.10
2018-01-15T08:52:40.420Z,78.30
2018-01-15T08:55:13.085Z,78.20
2018-01-15T08:57:46.272Z,78.00
2018-01-15T09:00:19.214Z,77.80
2018-01-15T09:02:52.046Z,78.00
2018-01-15T09:05:25.318Z,77.20
2018-01-15T09:07:58.830Z,77.50
2018-01-15T09:10:31.752Z,77.50
2018-01-15T09:13:05.110Z,77.50
2018-01-15T09:15:38.442Z,77.30
2018-01-15T09:18:11.897Z,76.90
2018-01-15T09:20:44.573Z,77.00
2018-01-15T09:23:17.332Z,76.90
2018-01-15T09:25:49.998Z,76.70
2018-01-15T09:28:22.675Z,77.20
2018-01-15T09:30:55.421Z,77.00
2018-01-15T09:33:28.139Z,76.90
2018-01-15T09:36:01.546Z,76.50
2018-01-15T09:38:34.654Z,75.70
2018-01-15T09:41:07.197Z,75.60
2018-01-15T09:43:39.755Z,75.70
2018-01-15T09:46:13.276Z,73.90
2018-01-15T09:48:46.221Z,73.90
2018-01-15T09:51:18.968Z,72.80
2018-01-15T09:53:51.589Z,71.80
2018-01-15T09:56:25.182Z,70.30
2018-01-15T09:58:58.786Z,69.90
2018-01-15T10:01:31.796Z,69.80
2018-01-15T10:04:04.637Z,68.90
2018-01-15T10:06:37.954Z,68.00
2018-01-15T10:09:10.531Z,67.00
2018-01-15T10:11:43.190Z,66.20
2018-01-15T10:14:15.676Z,64.80
2018-01-15T10:16:48.878Z,64.30
2018-01-15T10:19:21.879Z,64.30
2018-01-15T10:21:54.313Z,64.10
2018-01-15T10:24:27.053Z,63.90
2018-01-15T10:27:00.269Z,64.20
2018-01-15T10:29:33.869Z,64.60
2018-01-15T10:32:06.960Z,64.10
2018-01-15T10:34:39.791Z,64.80
2018-01-15T10:37:12.389Z,64.70
2018-01-15T10:39:45.753Z,65.20
2018-01-15T10:42:19.537Z,63.90
2018-01-15T10:44:52.554Z,63.90
2018-01-15T10:47:26.013Z,64.80
2018-01-15T10:49:59.061Z,64.70
2018-01-15T10:52:31.790Z,65.20
2018-01-15T10:55:04.596Z,65.00
2018-01-15T10:57:37.466Z,64.80
2018-01-15T11:00:11.214Z,64.80
2018-01-15T11:02:45.381Z,65.80
2018-01-15T11:05:18.669Z,65.20
2018-01-15T11:07:51.370Z,65.50
2018-01-15T11:10:23.733Z,65.50
2018-01-15T11:12:57.064Z,65.20
2018-01-15T11:15:30.107Z,65.00
2018-01-15T11:18:03.290Z,64.50
2018-01-15T11:20:36.134Z,64.40
2018-01-15T11:23:08.741Z,64.50
2018-01-15T11:25:42.056Z,64.40
2018-01-15T11:28:14.890Z,64.40
2018-01-15T11:30:47.541Z,65.00
2018-01-15T11:33:20.799Z,64.60
2018-01-15T11:35:53.895Z,64.60
2018-01-15T11:38:27.532Z,64.50
2018-01-15T11:41:00.046Z,64.40
2018-01-15T11:43:32.520Z,64.40
2018-01-15T11:46:05.112Z,64.80
2018-01-15T11:48:38.606Z,64.90
2018-01-15T11:51:11.425Z,64.70
2018-01-15T11:53:44.134Z,64.30
2018-01-15T11:56:17.658Z,64.40
2018-01-15T11:58:51.386Z,64.70
2018-01-15T12:01:24.257Z,64.70
2018-01-15T12:03:56.959Z,64.70
2018-01-15T12:06:29.699Z,64.60
2018-01-15T12:09:02.491Z,64.90
2018-01-15T12:11:34.941Z,65.20
2018-01-15T12:14:07.588Z,65.60
2018-01-15T12:16:40.906Z,65.40
2018-01-15T12:19:13.905Z,65.50
2018-01-15T12:21:46.600Z,65.10
2018-01-15T12:24:19.141Z,64.80
2018-01-15T12:26:52.816Z,65.30
2018-01-15T12:29:25.885Z,65.30
2018-01-15T12:31:59.018Z,64.90
2018-01-15T12:34:32.337Z,65.30
2018-01-15T12:37:04.958Z,66.40
2018-01-15T12:39:37.970Z,65.60
2018-01-15T12:42:11.358Z,65.30
2018-01-15T12:44:44.299Z,65.30
2018-01-15T12:47:16.906Z,65.60
2018-01-15T12:49:49.673Z,65.40
2018-01-15T12:52:22.150Z,65.40
2018-01-15T12:54:54.736Z,65.40
2018-01-15T12:57:28.160Z,65.50
2018-01-15T13:00:01.015Z,65.50
2018-01-15T13:02:33.727Z,65.70
2018-01-15T13:05:06.928Z,65.80
2018-01-15T13:07:58.027Z,65.70
2018-01-15T13:10:30.530Z,65.20
2018-01-15T13:13:03.774Z,65.10
2018-01-15T13:15:36.584Z,65.10
2018-01-15T13:18:10.221Z,65.00
2018-01-15T13:20:42.622Z,65.00
2018-01-15T13:23:15.230Z,64.80
2018-01-15T13:25:48.419Z,63.70
2018-01-15T13:28:21.156Z,63.70
2018-01-15T13:30:53.575Z,63.50
2018-01-15T13:33:26.100Z,63.50
2018-01-15T13:35:59.394Z,63.10
2018-01-15T13:38:32.567Z,63.00
2018-01-15T13:41:06.516Z,62.90
2018-01-15T13:43:39.795Z,62.90
2018-01-15T13:46:12.278Z,62.70
2018-01-15T13:48:45.448Z,62.20
2018-01-15T13:51:19.586Z,62.00
2018-01-15T13:53:52.329Z,62.00
2018-01-15T13:56:24.862Z,62.10
2018-01-15T13:58:57.305Z,61.70
2018-01-15T14:01:29.870Z,61.60
2018-01-15T14:04:03.208Z,61.70
2018-01-15T14:06:36.785Z,61.60
2018-01-15T14:09:09.633Z,61.70
2018-01-15T14:11:42.110Z,61.90
2018-01-15T14:14:14.704Z,61.80
2018-01-15T14:16:47.471Z,61.80
2018-01-15T14:19:20.077Z,61.90
2018-01-15T14:21:52.604Z,62.20
2018-01-15T14:24:25.105Z,62.50
2018-01-15T14:26:57.921Z,63.20
2018-01-15T14:29:30.566Z,63.20
2018-01-15T14:32:03.181Z,63.70
2018-01-15T14:34:36.614Z,64.00
2018-01-15T14:37:09.457Z,63.80
2018-01-15T14:39:42.144Z,63.10
2018-01-15T14:42:14.825Z,63.80
2018-01-15T14:44:47.305Z,63.60
2018-01-15T14:47:20.647Z,63.00
2018-01-15T14:49:53.432Z,63.00
2018-01-15T14:52:26.630Z,62.90
2018-01-15T14:54:59.598Z,63.40
2018-01-15T14:57:32.653Z,63.30
2018-01-15T15:00:05.403Z,62.90
2018-01-15T15:02:38.577Z,62.30
2018-01-15T15:05:12.059Z,62.70
2018-01-15T15:07:45.433Z,62.80
2018-01-15T15:10:18.766Z,62.70
2018-01-15T15:12:51.364Z,62.70
2018-01-15T15:15:23.910Z,62.90
2018-01-15T15:17:57.200Z,62.80
2018-01-15T15:20:30.138Z,62.80
2018-01-15T15:23:03.397Z,63.80
2018-01-15T15:25:36.126Z,63.10
2018-01-15T15:28:08.704Z,63.10
2018-01-15T15:30:41.095Z,63.30
2018-01-15T15:33:13.747Z,64.00
2018-01-15T15:35:47.073Z,63.40
2018-01-15T15:38:20.326Z,63.40
2018-01-15T15:40:53.042Z,63.80
2018-01-15T15:43:25.552Z,63.70
2018-01-15T15:45:58.039Z,63.80
2018-01-15T15:48:31.394Z,64.10
2018-01-15T15:51:04.929Z,64.50
2018-01-15T15:53:37.818Z,64.50
2018-01-15T15:56:11.202Z,64.40
2018-01-15T15:58:43.976Z,64.40
2018-01-15T16:01:16.570Z,64.70
2018-01-15T16:03:49.655Z,65.10
2018-01-15T16:06:22.458Z,65.10
2018-01-15T16:08:55.833Z,65.00
2018-01-15T16:11:29.513Z,64.90
2018-01-15T16:14:02.825Z,64.90
2018-01-15T16:16:36.081Z,65.30
2018-01-15T16:19:08.968Z,65.20
2018-01-15T16:21:41.561Z,65.30
2018-01-15T16:24:15.755Z,65.60
2018-01-15T16:26:49.281Z,65.50
2018-01-15T16:29:22.530Z,65.80
2018-01-15T16:31:55.340Z,65.80
2018-01-15T16:34:27.844Z,65.80
2018-01-15T16:37:00.273Z,65.70
2018-01-15T16:39:33.571Z,65.70
2018-01-15T16:42:06.954Z,65.90
2018-01-15T16:44:40.332Z,66.00
2018-01-15T16:47:13.014Z,66.30
2018-01-15T16:49:45.646Z,66.20
2018-01-15T16:52:19.019Z,66.20
2018-01-15T16:54:51.659Z,66.10
2018-01-15T16:57:24.135Z,66.20
2018-01-15T16:59:57.666Z,66.70
2018-01-15T17:02:30.506Z,66.70
2018-01-15T17:05:03.866Z,66.60
2018-01-15T17:07:36.409Z,66.70
2018-01-15T17:10:09.064Z,66.80
2018-01-15T17:12:42.541Z,66.50
2018-01-15T17:15:15.545Z,66.50
2018-01-15T17:17:49.545Z,66.40
2018-01-15T17:20:22.422Z,66.40
2018-01-15T17:22:55.690Z,66.60
2018-01-15T17:25:28.347Z,66.60
2018-01-15T17:28:01.160Z,66.40
2018-01-15T17:30:33.570Z,66.50
2018-01-15T17:33:06.115Z,66.80
2018-01-15T17:35:38.657Z,66.50
2018-01-15T17:38:11.365Z,66.50
2018-01-15T17:40:44.628Z,66.40
2018-01-15T17:43:17.545Z,66.40
2018-01-15T17:45:50.080Z,66.40
2018-01-15T17:48:22.710Z,66.30
2018-01-15T17:50:55.256Z,65.90
2018-01-15T17:53:29.394Z,65.80
2018-01-15T17:56:02.881Z,65.50
2018-01-15T17:58:35.738Z,65.50
2018-01-15T18:01:08.326Z,65.60
2018-01-15T18:03:41.006Z,65.60
2018-01-15T18:06:14.515Z,65.40
2018-01-15T18:08:47.083Z,65.80
2018-01-15T18:11:20.361Z,66.00
2018-01-15T18:13:53.122Z,66.00
2018-01-15T18:16:25.736Z,66.10
2018-01-15T18:18:58.902Z,66.30
2018-01-15T18:21:32.237Z,66.30
2018-01-15T18:24:05.215Z,66.80
2018-01-15T18:26:37.850Z,67.00
2018-01-15T18:29:10.497Z,67.00
2018-01-15T18:31:43.191Z,66.70
2018-01-15T18:34:16.494Z,66.80
2018-01-15T18:36:49.149Z,67.00
2018-01-15T18:39:21.613Z,66.60
2018-01-15T18:41:54.321Z,66.50
2018-01-15T18:44:27.684Z,66.80
2018-01-15T18:47:00.607Z,66.80
2018-01-15T18:49:33.274Z,66.40
2018-01-15T18:52:05.916Z,66.60
2018-01-15T18:54:38.519Z,66.60
2018-01-15T18:57:11.931Z,66.50
2018-01-15T18:59:45.053Z,66.50
2018-01-15T19:02:18.454Z,66.50
2018-01-15T19:04:52.658Z,66.70
2018-01-15T19:07:25.831Z,66.70
2018-01-15T19:09:59.856Z,66.50
2018-01-15T19:12:33.360Z,66.50
2018-01-15T19:15:05.839Z,65.90
2018-01-15T19:17:38.521Z,65.70
2018-01-15T19:20:12.034Z,65.70
2018-01-15T19:22:45.496Z,65.80
2018-01-15T19:25:18.115Z,65.70
2018-01-15T19:27:50.674Z,65.60
2018-01-15T19:30:24.102Z,65.60
2018-01-15T19:32:57.328Z,65.50
2018-01-15T19:35:33.664Z,65.80
2018-01-15T19:38:07.372Z,65.80
2018-01-15T19:40:40.698Z,66.30
2018-01-15T19:43:20.789Z,66.70
2018-01-15T19:46:00.941Z,66.80
2018-01-15T19:48:39.993Z,66.80
2018-01-15T19:51:18.951Z,66.90
2018-01-15T19:53:58.481Z,67.30
2018-01-15T19:56:37.406Z,67.80
2018-01-15T19:59:17.743Z,67.90
2018-01-15T20:01:56.722Z,67.90
2018-01-15T20:04:36.278Z,67.50
2018-01-15T20:07:15.728Z,67.10
2018-01-15T20:09:55.046Z,67.10
2018-01-15T20:12:27.758Z,67.20
2018-01-15T20:15:01.798Z,67.10
2018-01-15T20:17:35.624Z,67.50
2018-01-15T20:20:10.118Z,68.10
2018-01-15T20:22:43.196Z,67.50
2018-01-15T20:25:16.547Z,67.60
2018-01-15T20:27:51.306Z,67.60
2018-01-15T20:30:24.638Z,67.60
2018-01-15T20:32:57.361Z,67.30
2018-01-15T20:35:30.773Z,67.60
2018-01-15T20:38:04.352Z,67.70
2018-01-15T20:40:37.916Z,67.70
2018-01-15T20:43:12.738Z,67.50
2018-01-15T20:45:47.972Z,67.50
2018-01-15T20:48:21.898Z,67.60
2018-01-15T20:50:56.174Z,66.80
2018-01-15T20:53:29.159Z,66.80
2018-01-15T20:56:02.737Z,66.80
2018-01-15T20:58:35.948Z,67.20
2018-01-15T21:01:09.009Z,67.80
2018-01-15T21:03:43.920Z,67.70
2018-01-15T21:06:16.791Z,67.70
2018-01-15T21:08:49.953Z,67.20
2018-01-15T21:11:23.315Z,67.70
2018-01-15T21:13:58.288Z,68.50
2018-01-15T21:16:31.153Z,67.80
2018-01-15T21:19:03.873Z,67.70
2018-01-15T21:21:37.445Z,66.90
2018-01-15T21:24:10.971Z,66.60
2018-01-15T21:26:44.261Z,67.00
2018-01-15T21:29:17.157Z,67.00
2018-01-15T21:31:49.689Z,66.80
2018-01-15T21:34:23.112Z,66.70
2018-01-15T21:36:55.737Z,66.70
2018-01-15T21:39:28.337Z,67.00
2018-01-15T21:42:00.904Z,66.50
2018-01-15T21:44:33.566Z,66.40
2018-01-15T21:47:07.711Z,66.60
2018-01-15T21:49:40.469Z,67.20
2018-01-15T21:52:14.050Z,66.90
2018-01-15T21:54:47.016Z,67.20
2018-01-15T21:57:20.398Z,66.90
2018-01-15T21:59:53.234Z,66.90
2018-01-15T22:02:26.749Z,66.60
2018-01-15T22:05:00.864Z,67.00
2018-01-15T22:07:34.312Z,66.80
2018-01-15T22:10:07.010Z,66.70
2018-01-15T22:12:39.502Z,66.90
2018-01-15T22:15:12.891Z,66.90
2018-01-15T22:17:46.304Z,67.20
2018-01-15T22:20:19.102Z,67.00
2018-01-15T22:22:51.755Z,67.20
2018-01-15T22:25:24.377Z,67.30
2018-01-15T22:27:57.762Z,67.10
2018-01-15T22:30:30.596Z,67.90
2018-01-15T22:33:03.030Z,66.90
2018-01-15T22:35:35.662Z,66.30
2018-01-15T22:38:08.170Z,66.00
2018-01-15T22:40:41.481Z,65.60
2018-01-15T22:43:14.222Z,65.50
2018-01-15T22:45:47.513Z,65.60
2018-01-15T22:48:20.879Z,65.50
2018-01-15T22:50:54.250Z,65.30
2018-01-15T22:53:26.853Z,65.30
2018-01-15T22:55:59.571Z,65.60
2018-01-15T22:58:32.180Z,65.90
2018-01-15T23:01:04.892Z,66.60
2018-01-15T23:03:37.503Z,67.30
2018-01-15T23:06:10.159Z,67.80
2018-01-15T23:08:42.929Z,68.50
2018-01-15T23:11:15.501Z,68.90
2018-01-15T23:13:48.197Z,69.70
2018-01-15T23:16:21.484Z,70.60
2018-01-15T23:18:54.294Z,71.20
2018-01-15T23:21:27.012Z,72.10
2018-01-15T23:23:59.687Z,72.80
2018-01-15T23:26:32.374Z,73.20
2018-01-15T23:29:05.693Z,73.60
2018-01-15T23:31:38.772Z,74.30
2018-01-15T23:34:11.220Z,73.60
2018-01-15T23:36:44.053Z,74.50
2018-01-15T23:39:16.811Z,75.20
2018-01-15T23:41:50.965Z,75.90
2018-01-15T23:44:23.774Z,75.90
2018-01-15T23:46:56.321Z,75.80
2018-01-15T23:49:28.937Z,76.00
2018-01-15T23:54:42.823Z,75.30
2018-01-15T23:57:15.704Z,75.40
2018-01-15T23:59:49.099Z,75.10
